sensor_id;sensor_type;location;lat;lon;timestamp;pressure;altitude;pressure_sealevel;temperature;humidity
11343;BME280;5726;42.160;24.746;2023-12-20T00:01:36;100002.00;;;7.83;97.85
11343;BME280;5726;42.160;24.746;2023-12-20T00:04:02;100004.75;;;7.93;96.79
11343;BME280;5726;42.160;24.746;2023-12-20T00:06:28;100006.38;;;7.94;96.55
11343;BME280;5726;42.160;24.746;2023-12-20T00:08:53;99996.47;;;7.89;97.02
11343;BME280;5726;42.160;24.746;2023-12-20T00:11:19;99993.41;;;7.71;97.80
11343;BME280;5726;42.160;24.746;2023-12-20T00:13:45;99994.50;;;7.75;97.59
11343;BME280;5726;42.160;24.746;2023-12-20T00:16:10;99992.88;;;7.74;97.39
11343;BME280;5726;42.160;24.746;2023-12-20T00:18:36;99991.31;;;7.73;97.51
11343;BME280;5726;42.160;24.746;2023-12-20T00:21:02;99989.16;;;7.75;97.62
11343;BME280;5726;42.160;24.746;2023-12-20T00:23:27;99988.06;;;7.71;97.42
11343;BME280;5726;42.160;24.746;2023-12-20T00:25:53;99987.88;;;7.82;97.02
11343;BME280;5726;42.160;24.746;2023-12-20T00:28:19;99987.63;;;7.84;96.64
11343;BME280;5726;42.160;24.746;2023-12-20T00:30:44;99983.59;;;7.81;95.73
11343;BME280;5726;42.160;24.746;2023-12-20T00:33:10;99974.19;;;7.74;96.73
11343;BME280;5726;42.160;24.746;2023-12-20T00:35:35;99971.25;;;7.65;97.04
11343;BME280;5726;42.160;24.746;2023-12-20T00:38:01;99966.00;;;7.44;98.42
11343;BME280;5726;42.160;24.746;2023-12-20T00:40:27;99955.41;;;7.49;98.87
11343;BME280;5726;42.160;24.746;2023-12-20T00:42:53;99962.38;;;7.60;97.89
11343;BME280;5726;42.160;24.746;2023-12-20T00:45:18;99958.16;;;7.64;98.37
11343;BME280;5726;42.160;24.746;2023-12-20T00:47:45;99953.88;;;7.63;97.96
11343;BME280;5726;42.160;24.746;2023-12-20T00:50:10;99954.66;;;7.63;97.78
11343;BME280;5726;42.160;24.746;2023-12-20T00:52:36;99954.19;;;7.71;97.53
11343;BME280;5726;42.160;24.746;2023-12-20T00:55:02;99947.78;;;7.72;97.45
11343;BME280;5726;42.160;24.746;2023-12-20T00:57:29;99948.88;;;7.81;96.82
11343;BME280;5726;42.160;24.746;2023-12-20T00:59:54;99945.34;;;7.61;97.11
11343;BME280;5726;42.160;24.746;2023-12-20T01:02:20;99940.44;;;7.43;98.28
11343;BME280;5726;42.160;24.746;2023-12-20T01:04:45;99929.94;;;7.32;99.17
11343;BME280;5726;42.160;24.746;2023-12-20T01:07:11;99927.59;;;7.40;99.05
11343;BME280;5726;42.160;24.746;2023-12-20T01:09:37;99931.59;;;7.43;98.41
11343;BME280;5726;42.160;24.746;2023-12-20T01:12:03;99929.16;;;7.31;98.47
11343;BME280;5726;42.160;24.746;2023-12-20T01:14:29;99927.56;;;7.35;98.70
11343;BME280;5726;42.160;24.746;2023-12-20T01:16:54;99924.88;;;7.30;99.01
11343;BME280;5726;42.160;24.746;2023-12-20T01:19:20;99917.38;;;7.27;98.71
11343;BME280;5726;42.160;24.746;2023-12-20T01:21:46;99918.31;;;7.48;96.75
11343;BME280;5726;42.160;24.746;2023-12-20T01:24:12;99913.41;;;7.35;97.03
11343;BME280;5726;42.160;24.746;2023-12-20T01:26:38;99909.41;;;7.32;97.29
11343;BME280;5726;42.160;24.746;2023-12-20T01:29:03;99905.31;;;7.20;97.49
11343;BME280;5726;42.160;24.746;2023-12-20T01:31:29;99900.50;;;7.17;96.94
11343;BME280;5726;42.160;24.746;2023-12-20T01:33:54;99903.06;;;7.02;96.58
11343;BME280;5726;42.160;24.746;2023-12-20T01:36:20;99908.66;;;7.01;95.81
11343;BME280;5726;42.160;24.746;2023-12-20T01:38:45;99902.84;;;7.09;94.83
11343;BME280;5726;42.160;24.746;2023-12-20T01:41:11;99895.59;;;6.99;95.41
11343;BME280;5726;42.160;24.746;2023-12-20T01:43:37;99893.47;;;6.70;96.33
11343;BME280;5726;42.160;24.746;2023-12-20T01:46:02;99898.78;;;6.65;95.25
11343;BME280;5726;42.160;24.746;2023-12-20T01:48:29;99899.53;;;6.34;97.43
11343;BME280;5726;42.160;24.746;2023-12-20T01:50:55;99893.94;;;6.31;97.25
11343;BME280;5726;42.160;24.746;2023-12-20T01:53:24;99890.63;;;6.45;97.21
11343;BME280;5726;42.160;24.746;2023-12-20T01:55:52;99894.00;;;6.67;96.46
11343;BME280;5726;42.160;24.746;2023-12-20T01:58:19;99890.88;;;6.75;95.73
11343;BME280;5726;42.160;24.746;2023-12-20T02:00:45;99872.78;;;6.82;94.75
11343;BME280;5726;42.160;24.746;2023-12-20T02:03:11;99876.31;;;6.56;96.09
11343;BME280;5726;42.160;24.746;2023-12-20T02:05:37;99873.75;;;6.35;97.55
11343;BME280;5726;42.160;24.746;2023-12-20T02:08:04;99861.63;;;6.54;97.19
11343;BME280;5726;42.160;24.746;2023-12-20T02:10:31;99856.56;;;6.52;97.66
11343;BME280;5726;42.160;24.746;2023-12-20T02:12:57;99849.94;;;6.55;97.44
11343;BME280;5726;42.160;24.746;2023-12-20T02:15:22;99849.22;;;6.64;97.03
11343;BME280;5726;42.160;24.746;2023-12-20T02:17:49;99846.50;;;6.59;97.49
11343;BME280;5726;42.160;24.746;2023-12-20T02:20:14;99854.22;;;6.56;98.07
11343;BME280;5726;42.160;24.746;2023-12-20T02:22:40;99843.44;;;6.72;97.37
11343;BME280;5726;42.160;24.746;2023-12-20T02:25:06;99849.00;;;6.70;97.22
11343;BME280;5726;42.160;24.746;2023-12-20T02:27:31;99842.19;;;6.48;98.23
11343;BME280;5726;42.160;24.746;2023-12-20T02:29:57;99842.59;;;6.35;98.71
11343;BME280;5726;42.160;24.746;2023-12-20T02:32:24;99844.50;;;6.14;100.00
11343;BME280;5726;42.160;24.746;2023-12-20T02:34:52;99839.88;;;6.04;100.00
11343;BME280;5726;42.160;24.746;2023-12-20T02:37:17;99838.69;;;5.90;100.00
11343;BME280;5726;42.160;24.746;2023-12-20T02:39:43;99834.66;;;5.88;100.00
11343;BME280;5726;42.160;24.746;2023-12-20T02:42:08;99833.09;;;6.18;100.00
11343;BME280;5726;42.160;24.746;2023-12-20T02:44:34;99825.88;;;6.14;100.00
11343;BME280;5726;42.160;24.746;2023-12-20T02:46:59;99833.94;;;6.23;100.00
11343;BME280;5726;42.160;24.746;2023-12-20T02:49:25;99831.75;;;6.16;100.00
11343;BME280;5726;42.160;24.746;2023-12-20T02:51:51;99817.34;;;5.64;100.00
11343;BME280;5726;42.160;24.746;2023-12-20T02:54:16;99816.56;;;5.90;100.00
11343;BME280;5726;42.160;24.746;2023-12-20T02:56:42;99816.53;;;5.85;100.00
11343;BME280;5726;42.160;24.746;2023-12-20T02:59:07;99811.00;;;5.91;100.00
11343;BME280;5726;42.160;24.746;2023-12-20T03:01:34;99808.66;;;5.47;100.00
11343;BME280;5726;42.160;24.746;2023-12-20T03:04:00;99808.75;;;5.36;100.00
11343;BME280;5726;42.160;24.746;2023-12-20T03:06:26;99817.22;;;5.54;100.00
11343;BME280;5726;42.160;24.746;2023-12-20T03:08:52;99811.41;;;5.57;100.00
11343;BME280;5726;42.160;24.746;2023-12-20T03:11:17;99803.91;;;5.54;100.00
11343;BME280;5726;42.160;24.746;2023-12-20T03:13:43;99803.69;;;5.77;100.00
11343;BME280;5726;42.160;24.746;2023-12-20T03:16:12;99804.34;;;5.89;100.00
11343;BME280;5726;42.160;24.746;2023-12-20T03:18:38;99803.28;;;5.90;100.00
11343;BME280;5726;42.160;24.746;2023-12-20T03:21:04;99810.81;;;5.98;100.00
11343;BME280;5726;42.160;24.746;2023-12-20T03:23:30;99803.84;;;5.92;100.00
11343;BME280;5726;42.160;24.746;2023-12-20T03:25:58;99801.13;;;5.87;100.00
11343;BME280;5726;42.160;24.746;2023-12-20T03:28:23;99795.72;;;5.77;100.00
11343;BME280;5726;42.160;24.746;2023-12-20T03:30:49;99797.44;;;5.67;100.00
11343;BME280;5726;42.160;24.746;2023-12-20T03:33:15;99793.09;;;5.82;100.00
11343;BME280;5726;42.160;24.746;2023-12-20T03:35:41;99793.59;;;5.79;100.00
11343;BME280;5726;42.160;24.746;2023-12-20T03:38:07;99786.00;;;5.92;100.00
11343;BME280;5726;42.160;24.746;2023-12-20T03:40:32;99787.47;;;6.05;99.92
11343;BME280;5726;42.160;24.746;2023-12-20T03:42:58;99790.38;;;6.03;100.00
11343;BME280;5726;42.160;24.746;2023-12-20T03:45:24;99785.91;;;6.09;100.00
11343;BME280;5726;42.160;24.746;2023-12-20T03:47:50;99781.34;;;6.04;100.00
11343;BME280;5726;42.160;24.746;2023-12-20T03:50:21;99779.53;;;6.10;99.16
11343;BME280;5726;42.160;24.746;2023-12-20T03:52:47;99776.56;;;6.06;99.65
11343;BME280;5726;42.160;24.746;2023-12-20T03:55:13;99790.19;;;6.10;99.71
11343;BME280;5726;42.160;24.746;2023-12-20T03:57:38;99784.50;;;6.01;99.93
11343;BME280;5726;42.160;24.746;2023-12-20T04:00:05;99787.41;;;6.00;100.00
11343;BME280;5726;42.160;24.746;2023-12-20T04:02:39;99793.47;;;6.21;99.93
11343;BME280;5726;42.160;24.746;2023-12-20T04:05:05;99778.41;;;6.32;98.94
11343;BME280;5726;42.160;24.746;2023-12-20T04:07:31;99785.53;;;6.26;98.35
11343;BME280;5726;42.160;24.746;2023-12-20T04:09:57;99785.44;;;6.17;98.66
11343;BME280;5726;42.160;24.746;2023-12-20T04:12:23;99772.34;;;6.10;98.76
11343;BME280;5726;42.160;24.746;2023-12-20T04:14:48;99770.22;;;6.43;97.47
11343;BME280;5726;42.160;24.746;2023-12-20T04:17:15;99766.59;;;6.54;95.37
11343;BME280;5726;42.160;24.746;2023-12-20T04:19:43;99772.09;;;6.12;96.82
11343;BME280;5726;42.160;24.746;2023-12-20T04:22:09;99773.59;;;6.03;98.30
11343;BME280;5726;42.160;24.746;2023-12-20T04:24:35;99775.16;;;5.99;98.78
11343;BME280;5726;42.160;24.746;2023-12-20T04:27:01;99770.44;;;6.06;99.02
11343;BME280;5726;42.160;24.746;2023-12-20T04:29:27;99768.44;;;6.22;96.91
11343;BME280;5726;42.160;24.746;2023-12-20T04:31:52;99764.66;;;6.14;97.85
11343;BME280;5726;42.160;24.746;2023-12-20T04:34:18;99771.88;;;6.18;97.99
11343;BME280;5726;42.160;24.746;2023-12-20T04:36:44;99762.34;;;6.22;97.95
11343;BME280;5726;42.160;24.746;2023-12-20T04:39:11;99769.47;;;6.17;98.14
11343;BME280;5726;42.160;24.746;2023-12-20T04:41:37;99772.09;;;6.12;97.89
11343;BME280;5726;42.160;24.746;2023-12-20T04:44:03;99760.56;;;6.01;98.09
11343;BME280;5726;42.160;24.746;2023-12-20T04:46:28;99753.44;;;6.07;98.57
11343;BME280;5726;42.160;24.746;2023-12-20T04:48:54;99755.88;;;6.13;97.84
11343;BME280;5726;42.160;24.746;2023-12-20T04:51:19;99747.63;;;6.15;97.37
11343;BME280;5726;42.160;24.746;2023-12-20T04:53:45;99744.56;;;6.32;96.73
11343;BME280;5726;42.160;24.746;2023-12-20T04:56:11;99745.97;;;6.09;97.26
11343;BME280;5726;42.160;24.746;2023-12-20T04:58:37;99752.91;;;6.10;97.36
11343;BME280;5726;42.160;24.746;2023-12-20T05:01:03;99751.41;;;6.18;97.36
11343;BME280;5726;42.160;24.746;2023-12-20T05:03:31;99749.13;;;6.01;97.37
11343;BME280;5726;42.160;24.746;2023-12-20T05:05:56;99754.13;;;5.71;99.02
11343;BME280;5726;42.160;24.746;2023-12-20T05:08:22;99742.19;;;5.47;100.00
11343;BME280;5726;42.160;24.746;2023-12-20T05:10:48;99735.06;;;5.31;100.00
11343;BME280;5726;42.160;24.746;2023-12-20T05:13:13;99736.69;;;5.59;100.00
11343;BME280;5726;42.160;24.746;2023-12-20T05:15:39;99737.06;;;5.67;100.00
11343;BME280;5726;42.160;24.746;2023-12-20T05:18:05;99739.88;;;5.82;99.77
11343;BME280;5726;42.160;24.746;2023-12-20T05:20:30;99731.63;;;6.10;96.20
11343;BME280;5726;42.160;24.746;2023-12-20T05:22:56;99731.91;;;6.13;95.12
11343;BME280;5726;42.160;24.746;2023-12-20T05:25:22;99730.78;;;5.78;96.96
11343;BME280;5726;42.160;24.746;2023-12-20T05:27:47;99731.69;;;5.62;98.36
11343;BME280;5726;42.160;24.746;2023-12-20T05:30:13;99727.34;;;5.77;100.00
11343;BME280;5726;42.160;24.746;2023-12-20T05:32:39;99713.25;;;6.49;100.00
11343;BME280;5726;42.160;24.746;2023-12-20T05:35:04;99717.78;;;6.95;100.00
11343;BME280;5726;42.160;24.746;2023-12-20T05:37:30;99708.66;;;6.81;100.00
11343;BME280;5726;42.160;24.746;2023-12-20T05:39:55;99706.72;;;6.66;100.00
11343;BME280;5726;42.160;24.746;2023-12-20T05:42:21;99709.44;;;6.30;100.00
11343;BME280;5726;42.160;24.746;2023-12-20T05:44:46;99702.28;;;6.05;99.93
11343;BME280;5726;42.160;24.746;2023-12-20T05:47:12;99702.25;;;6.00;100.00
11343;BME280;5726;42.160;24.746;2023-12-20T05:49:38;99702.28;;;6.05;99.73
11343;BME280;5726;42.160;24.746;2023-12-20T05:52:03;99694.03;;;6.01;98.81
11343;BME280;5726;42.160;24.746;2023-12-20T05:54:29;99697.78;;;6.05;98.59
11343;BME280;5726;42.160;24.746;2023-12-20T05:56:55;99707.06;;;6.03;98.45
11343;BME280;5726;42.160;24.746;2023-12-20T05:59:21;99701.63;;;5.62;98.80
11343;BME280;5726;42.160;24.746;2023-12-20T06:01:46;99696.78;;;5.80;98.80
11343;BME280;5726;42.160;24.746;2023-12-20T06:04:12;99695.38;;;6.04;97.25
11343;BME280;5726;42.160;24.746;2023-12-20T06:06:41;99686.00;;;5.70;98.80
11343;BME280;5726;42.160;24.746;2023-12-20T06:09:07;99691.72;;;5.78;99.08
11343;BME280;5726;42.160;24.746;2023-12-20T06:11:33;99693.63;;;5.83;98.39
11343;BME280;5726;42.160;24.746;2023-12-20T06:13:59;99691.38;;;6.01;98.18
11343;BME280;5726;42.160;24.746;2023-12-20T06:16:24;99697.06;;;6.15;96.69
11343;BME280;5726;42.160;24.746;2023-12-20T06:18:50;99693.91;;;5.86;97.67
11343;BME280;5726;42.160;24.746;2023-12-20T06:21:16;99698.69;;;5.84;97.97
11343;BME280;5726;42.160;24.746;2023-12-20T06:23:41;99696.53;;;6.13;97.02
11343;BME280;5726;42.160;24.746;2023-12-20T06:26:07;99692.00;;;6.18;95.74
11343;BME280;5726;42.160;24.746;2023-12-20T06:28:32;99685.97;;;5.65;97.52
11343;BME280;5726;42.160;24.746;2023-12-20T06:30:58;99685.38;;;5.58;100.00
11343;BME280;5726;42.160;24.746;2023-12-20T06:33:25;99688.50;;;5.76;98.55
11343;BME280;5726;42.160;24.746;2023-12-20T06:35:51;99680.97;;;5.73;98.10
11343;BME280;5726;42.160;24.746;2023-12-20T06:38:17;99687.84;;;5.38;100.00
11343;BME280;5726;42.160;24.746;2023-12-20T06:40:43;99694.16;;;5.59;99.21
11343;BME280;5726;42.160;24.746;2023-12-20T06:43:09;99688.16;;;5.73;98.48
11343;BME280;5726;42.160;24.746;2023-12-20T06:45:35;99698.63;;;5.79;97.28
11343;BME280;5726;42.160;24.746;2023-12-20T06:48:01;99691.47;;;5.59;100.00
11343;BME280;5726;42.160;24.746;2023-12-20T06:50:26;99684.06;;;5.34;100.00
11343;BME280;5726;42.160;24.746;2023-12-20T06:52:52;99693.09;;;5.60;100.00
11343;BME280;5726;42.160;24.746;2023-12-20T06:55:18;99680.34;;;5.88;100.00
11343;BME280;5726;42.160;24.746;2023-12-20T06:57:44;99677.94;;;5.60;100.00
11343;BME280;5726;42.160;24.746;2023-12-20T07:00:11;99683.84;;;5.67;100.00
11343;BME280;5726;42.160;24.746;2023-12-20T07:02:37;99683.75;;;5.57;100.00
11343;BME280;5726;42.160;24.746;2023-12-20T07:05:02;99677.06;;;5.76;100.00
11343;BME280;5726;42.160;24.746;2023-12-20T07:07:28;99685.66;;;5.88;100.00
11343;BME280;5726;42.160;24.746;2023-12-20T07:09:54;99680.28;;;6.14;100.00
11343;BME280;5726;42.160;24.746;2023-12-20T07:12:19;99673.28;;;6.39;100.00
11343;BME280;5726;42.160;24.746;2023-12-20T07:14:45;99665.91;;;6.61;99.35
11343;BME280;5726;42.160;24.746;2023-12-20T07:17:11;99667.09;;;6.85;97.83
11343;BME280;5726;42.160;24.746;2023-12-20T07:19:39;99667.72;;;7.07;96.65
11343;BME280;5726;42.160;24.746;2023-12-20T07:22:06;99662.91;;;7.04;95.65
11343;BME280;5726;42.160;24.746;2023-12-20T07:24:32;99660.56;;;7.17;95.14
11343;BME280;5726;42.160;24.746;2023-12-20T07:26:59;99655.44;;;7.01;94.39
11343;BME280;5726;42.160;24.746;2023-12-20T07:29:25;99662.44;;;7.26;93.71
11343;BME280;5726;42.160;24.746;2023-12-20T07:31:52;99657.13;;;7.36;93.40
11343;BME280;5726;42.160;24.746;2023-12-20T07:34:22;99653.38;;;7.32;93.50
11343;BME280;5726;42.160;24.746;2023-12-20T07:36:47;99653.38;;;7.32;94.30
11343;BME280;5726;42.160;24.746;2023-12-20T07:39:14;99655.53;;;7.45;93.28
11343;BME280;5726;42.160;24.746;2023-12-20T07:41:39;99656.09;;;7.52;93.44
11343;BME280;5726;42.160;24.746;2023-12-20T07:44:05;99655.56;;;7.65;93.21
11343;BME280;5726;42.160;24.746;2023-12-20T07:46:31;99651.31;;;7.64;94.13
11343;BME280;5726;42.160;24.746;2023-12-20T07:48:57;99645.44;;;7.67;94.54
11343;BME280;5726;42.160;24.746;2023-12-20T07:51:22;99645.16;;;7.59;96.10
11343;BME280;5726;42.160;24.746;2023-12-20T07:53:48;99639.03;;;7.58;96.39
11343;BME280;5726;42.160;24.746;2023-12-20T07:56:17;99637.16;;;7.68;93.59
11343;BME280;5726;42.160;24.746;2023-12-20T07:58:43;99634.22;;;7.60;93.55
11343;BME280;5726;42.160;24.746;2023-12-20T08:01:10;99633.44;;;7.60;92.64
11343;BME280;5726;42.160;24.746;2023-12-20T08:03:36;99627.81;;;7.51;92.53
11343;BME280;5726;42.160;24.746;2023-12-20T08:06:02;99627.81;;;7.71;93.34
11343;BME280;5726;42.160;24.746;2023-12-20T08:08:28;99627.00;;;7.75;94.25
11343;BME280;5726;42.160;24.746;2023-12-20T08:10:53;99625.69;;;7.88;92.48
11343;BME280;5726;42.160;24.746;2023-12-20T08:13:19;99629.41;;;7.77;92.24
11343;BME280;5726;42.160;24.746;2023-12-20T08:15:44;99626.72;;;7.92;91.77
11343;BME280;5726;42.160;24.746;2023-12-20T08:18:10;99624.63;;;8.13;92.16
11343;BME280;5726;42.160;24.746;2023-12-20T08:20:35;99629.91;;;8.33;89.16
11343;BME280;5726;42.160;24.746;2023-12-20T08:23:01;99621.41;;;7.97;91.80
11343;BME280;5726;42.160;24.746;2023-12-20T08:25:26;99622.44;;;8.10;93.91
11343;BME280;5726;42.160;24.746;2023-12-20T08:27:52;99620.00;;;8.44;92.31
11343;BME280;5726;42.160;24.746;2023-12-20T08:30:18;99615.88;;;8.76;88.43
11343;BME280;5726;42.160;24.746;2023-12-20T08:32:50;99615.69;;;9.10;88.95
11343;BME280;5726;42.160;24.746;2023-12-20T08:35:16;99600.50;;;9.44;87.35
11343;BME280;5726;42.160;24.746;2023-12-20T08:37:42;99595.44;;;10.04;85.96
11343;BME280;5726;42.160;24.746;2023-12-20T08:40:08;99593.88;;;10.03;83.52
11343;BME280;5726;42.160;24.746;2023-12-20T08:42:33;99594.56;;;10.37;80.76
11343;BME280;5726;42.160;24.746;2023-12-20T08:44:59;99588.25;;;10.28;82.18
11343;BME280;5726;42.160;24.746;2023-12-20T08:47:24;99581.25;;;10.32;82.90
11343;BME280;5726;42.160;24.746;2023-12-20T08:49:50;99576.81;;;10.64;82.00
11343;BME280;5726;42.160;24.746;2023-12-20T08:52:16;99574.47;;;10.81;80.28
11343;BME280;5726;42.160;24.746;2023-12-20T08:54:41;99571.06;;;10.94;79.41
11343;BME280;5726;42.160;24.746;2023-12-20T08:57:07;99562.84;;;10.67;79.68
11343;BME280;5726;42.160;24.746;2023-12-20T08:59:33;99551.81;;;10.50;81.50
11343;BME280;5726;42.160;24.746;2023-12-20T09:01:58;99547.00;;;10.47;82.25
11343;BME280;5726;42.160;24.746;2023-12-20T09:04:24;99546.06;;;10.56;80.84
11343;BME280;5726;42.160;24.746;2023-12-20T09:06:50;99540.13;;;10.41;81.63
11343;BME280;5726;42.160;24.746;2023-12-20T09:09:15;99537.97;;;9.92;82.72
11343;BME280;5726;42.160;24.746;2023-12-20T09:11:41;99528.25;;;9.44;85.17
11343;BME280;5726;42.160;24.746;2023-12-20T09:14:08;99520.25;;;10.01;85.05
11343;BME280;5726;42.160;24.746;2023-12-20T09:16:33;99513.88;;;10.38;84.58
11343;BME280;5726;42.160;24.746;2023-12-20T09:18:59;99512.72;;;10.67;81.51
11343;BME280;5726;42.160;24.746;2023-12-20T09:21:24;99502.28;;;10.66;80.48
11343;BME280;5726;42.160;24.746;2023-12-20T09:23:51;99504.09;;;10.89;80.63
11343;BME280;5726;42.160;24.746;2023-12-20T09:26:16;99498.06;;;11.15;79.99
11343;BME280;5726;42.160;24.746;2023-12-20T09:28:42;99501.03;;;11.13;78.72
11343;BME280;5726;42.160;24.746;2023-12-20T09:31:07;99491.03;;;11.00;79.32
11343;BME280;5726;42.160;24.746;2023-12-20T09:33:33;99489.16;;;10.83;79.75
11343;BME280;5726;42.160;24.746;2023-12-20T09:35:59;99486.97;;;10.66;80.37
11343;BME280;5726;42.160;24.746;2023-12-20T09:38:25;99484.59;;;10.65;80.80
11343;BME280;5726;42.160;24.746;2023-12-20T09:40:50;99472.03;;;10.60;81.87
11343;BME280;5726;42.160;24.746;2023-12-20T09:43:19;99468.63;;;10.92;81.92
11343;BME280;5726;42.160;24.746;2023-12-20T09:45:47;99461.09;;;10.94;80.09
11343;BME280;5726;42.160;24.746;2023-12-20T09:48:13;99452.69;;;10.82;80.23
11343;BME280;5726;42.160;24.746;2023-12-20T09:50:41;99444.78;;;10.53;80.91
11343;BME280;5726;42.160;24.746;2023-12-20T09:53:09;99445.66;;;10.86;80.96
11343;BME280;5726;42.160;24.746;2023-12-20T09:55:38;99448.97;;;11.28;79.44
11343;BME280;5726;42.160;24.746;2023-12-20T09:58:05;99439.94;;;11.24;78.83
11343;BME280;5726;42.160;24.746;2023-12-20T10:00:32;99436.53;;;11.18;79.97
11343;BME280;5726;42.160;24.746;2023-12-20T10:02:59;99439.38;;;11.27;80.02
11343;BME280;5726;42.160;24.746;2023-12-20T10:05:29;99433.13;;;11.13;79.55
11343;BME280;5726;42.160;24.746;2023-12-20T10:07:55;99424.34;;;10.94;79.70
11343;BME280;5726;42.160;24.746;2023-12-20T10:10:21;99416.00;;;10.96;80.42
11343;BME280;5726;42.160;24.746;2023-12-20T10:13:06;99409.66;;;11.05;80.31
11343;BME280;5726;42.160;24.746;2023-12-20T10:15:36;99405.28;;;10.96;79.66
11343;BME280;5726;42.160;24.746;2023-12-20T10:18:02;99414.91;;;10.96;79.72
11343;BME280;5726;42.160;24.746;2023-12-20T10:20:29;99400.25;;;11.07;79.95
11343;BME280;5726;42.160;24.746;2023-12-20T10:22:55;99401.31;;;11.06;79.06
11343;BME280;5726;42.160;24.746;2023-12-20T10:25:21;99392.88;;;11.13;78.65
11343;BME280;5726;42.160;24.746;2023-12-20T10:27:47;99385.97;;;11.25;77.21
11343;BME280;5726;42.160;24.746;2023-12-20T10:30:16;99388.16;;;11.23;77.92
11343;BME280;5726;42.160;24.746;2023-12-20T10:32:42;99385.44;;;11.10;78.28
11343;BME280;5726;42.160;24.746;2023-12-20T10:35:08;99373.91;;;11.09;79.15
11343;BME280;5726;42.160;24.746;2023-12-20T10:37:37;99376.31;;;11.11;78.13
11343;BME280;5726;42.160;24.746;2023-12-20T10:40:04;99375.63;;;11.19;78.04
11343;BME280;5726;42.160;24.746;2023-12-20T10:42:31;99366.44;;;11.06;79.08
11343;BME280;5726;42.160;24.746;2023-12-20T10:44:59;99361.44;;;11.32;77.90
11343;BME280;5726;42.160;24.746;2023-12-20T10:47:25;99350.72;;;10.87;81.21
11343;BME280;5726;42.160;24.746;2023-12-20T10:49:52;99344.84;;;10.98;80.90
11343;BME280;5726;42.160;24.746;2023-12-20T10:52:19;99340.81;;;11.00;81.06
11343;BME280;5726;42.160;24.746;2023-12-20T10:54:48;99333.28;;;11.16;80.89
11343;BME280;5726;42.160;24.746;2023-12-20T10:57:13;99331.22;;;11.40;79.94
11343;BME280;5726;42.160;24.746;2023-12-20T10:59:44;99319.88;;;11.43;79.50
11343;BME280;5726;42.160;24.746;2023-12-20T11:02:12;99324.78;;;11.54;79.39
11343;BME280;5726;42.160;24.746;2023-12-20T11:04:46;99313.13;;;11.45;79.97
11343;BME280;5726;42.160;24.746;2023-12-20T11:09:43;99305.34;;;11.97;78.04
11343;BME280;5726;42.160;24.746;2023-12-20T11:14:57;99295.63;;;12.09;77.03
11343;BME280;5726;42.160;24.746;2023-12-20T11:17:28;99289.69;;;12.34;76.50
11343;BME280;5726;42.160;24.746;2023-12-20T11:22:22;99290.41;;;12.48;74.50
11343;BME280;5726;42.160;24.746;2023-12-20T11:24:50;99290.41;;;12.48;74.87
11343;BME280;5726;42.160;24.746;2023-12-20T11:27:18;99287.63;;;12.53;73.23
11343;BME280;5726;42.160;24.746;2023-12-20T11:29:51;99277.22;;;12.60;72.64
11343;BME280;5726;42.160;24.746;2023-12-20T11:34:59;99269.41;;;12.28;73.43
11343;BME280;5726;42.160;24.746;2023-12-20T11:37:34;99260.97;;;12.21;73.59
11343;BME280;5726;42.160;24.746;2023-12-20T11:40:02;99259.34;;;11.98;74.62
11343;BME280;5726;42.160;24.746;2023-12-20T11:42:42;99260.56;;;12.28;73.80
11343;BME280;5726;42.160;24.746;2023-12-20T11:45:15;99252.53;;;12.14;74.38
11343;BME280;5726;42.160;24.746;2023-12-20T11:47:49;99248.34;;;12.22;73.27
11343;BME280;5726;42.160;24.746;2023-12-20T11:50:22;99246.91;;;12.02;74.59
11343;BME280;5726;42.160;24.746;2023-12-20T11:52:48;99240.19;;;12.13;74.67
11343;BME280;5726;42.160;24.746;2023-12-20T11:55:14;99233.47;;;12.02;75.19
11343;BME280;5726;42.160;24.746;2023-12-20T11:57:40;99228.16;;;12.33;74.37
11343;BME280;5726;42.160;24.746;2023-12-20T12:00:06;99214.09;;;12.57;73.56
11343;BME280;5726;42.160;24.746;2023-12-20T12:02:32;99214.50;;;12.51;73.04
11343;BME280;5726;42.160;24.746;2023-12-20T12:04:59;99213.91;;;12.54;73.34
11343;BME280;5726;42.160;24.746;2023-12-20T12:07:25;99211.59;;;12.39;73.39
11343;BME280;5726;42.160;24.746;2023-12-20T12:09:51;99210.03;;;12.38;74.63
11343;BME280;5726;42.160;24.746;2023-12-20T12:12:17;99196.63;;;12.46;73.98
11343;BME280;5726;42.160;24.746;2023-12-20T12:14:44;99202.06;;;12.33;74.83
11343;BME280;5726;42.160;24.746;2023-12-20T12:17:11;99195.75;;;12.29;74.96
11343;BME280;5726;42.160;24.746;2023-12-20T12:19:37;99192.44;;;12.32;74.28
11343;BME280;5726;42.160;24.746;2023-12-20T12:22:06;99192.97;;;12.21;74.96
11343;BME280;5726;42.160;24.746;2023-12-20T12:24:33;99196.22;;;12.31;74.64
11343;BME280;5726;42.160;24.746;2023-12-20T12:26:59;99186.00;;;12.41;75.67
11343;BME280;5726;42.160;24.746;2023-12-20T12:29:24;99187.47;;;12.26;75.43
11343;BME280;5726;42.160;24.746;2023-12-20T12:31:50;99180.38;;;12.30;76.66
11343;BME280;5726;42.160;24.746;2023-12-20T12:34:17;99176.94;;;12.38;75.04
11343;BME280;5726;42.160;24.746;2023-12-20T12:36:43;99181.19;;;12.30;76.10
11343;BME280;5726;42.160;24.746;2023-12-20T12:39:09;99181.94;;;12.22;75.94
11343;BME280;5726;42.160;24.746;2023-12-20T12:41:37;99172.22;;;12.13;77.06
11343;BME280;5726;42.160;24.746;2023-12-20T12:44:02;99166.47;;;11.84;78.44
11343;BME280;5726;42.160;24.746;2023-12-20T12:46:28;99169.94;;;12.06;78.22
11343;BME280;5726;42.160;24.746;2023-12-20T12:48:53;99160.97;;;12.11;78.17
11343;BME280;5726;42.160;24.746;2023-12-20T12:51:19;99161.97;;;12.15;78.27
11343;BME280;5726;42.160;24.746;2023-12-20T12:53:44;99159.25;;;12.37;77.55
11343;BME280;5726;42.160;24.746;2023-12-20T12:56:12;99160.13;;;12.24;78.13
11343;BME280;5726;42.160;24.746;2023-12-20T12:58:38;99155.44;;;12.07;78.58
11343;BME280;5726;42.160;24.746;2023-12-20T13:01:04;99158.59;;;12.09;79.04
11343;BME280;5726;42.160;24.746;2023-12-20T13:03:29;99144.63;;;11.99;79.47
11343;BME280;5726;42.160;24.746;2023-12-20T13:05:55;99149.44;;;12.10;79.37
11343;BME280;5726;42.160;24.746;2023-12-20T13:08:20;99149.53;;;12.27;78.94
11343;BME280;5726;42.160;24.746;2023-12-20T13:10:46;99151.28;;;12.01;79.83